Time;durP1;ratioP1;P1;durP2;ratioP2;P2;SDS_P1;SDS_P2;PMS_P1;PMS_P2;Temp;Humidity;BMP_temperature;BMP_pressure;BME280_temperature;BME280_humidity;BME280_pressure;Samples;Min_cycle;Max_cycle;Signal;HPM_P1;HPM_P2
2022/11/18 00:00:48;;;;;;;37.40;25.57;;;;;;;1.94;78.01;95748.30;1673669;85;25850;-74
2022/11/18 00:03:16;;;;;;;32.65;22.90;;;;;;;1.98;77.95;95742.91;1673867;85;28221;-75
2022/11/18 00:05:42;;;;;;;31.80;23.52;;;;;;;1.97;77.94;95740.75;1673792;85;26068;-72
2022/11/18 00:08:09;;;;;;;32.23;23.83;;;;;;;1.99;77.87;95737.89;1673926;85;25780;-73
2022/11/18 00:10:39;;;;;;;33.98;24.82;;;;;;;1.99;77.91;95741.37;1673848;85;26620;-73
2022/11/18 00:16:04;;;;;;;34.63;24.70;;;;;;;2.02;77.83;95742.83;1673638;85;27424;-76
2022/11/18 00:18:31;;;;;;;33.70;24.07;;;;;;;2.04;77.84;95732.81;1672413;85;25792;-74
2022/11/18 00:21:10;;;;;;;33.15;24.18;;;;;;;2.05;77.83;95739.78;1673876;85;25760;-75
2022/11/18 00:23:39;;;;;;;32.95;22.87;;;;;;;2.06;77.87;95742.22;1673867;85;26829;-75
2022/11/18 00:26:13;;;;;;;33.78;24.30;;;;;;;2.06;77.86;95747.54;1706478;83;25775;-72
2022/11/18 00:28:41;;;;;;;33.42;24.25;;;;;;;2.06;77.72;95747.54;1715212;83;27378;-72
2022/11/18 00:31:11;;;;;;;35.20;23.70;;;;;;;2.06;77.73;95746.72;1715055;83;25690;-72
2022/11/18 00:33:38;;;;;;;34.03;23.65;;;;;;;2.05;77.75;95751.75;1715213;83;25732;-77
2022/11/18 00:36:09;;;;;;;32.75;22.95;;;;;;;2.06;77.77;95744.05;1715219;83;25988;-73
2022/11/18 00:38:36;;;;;;;32.83;23.22;;;;;;;2.07;77.82;95741.70;1715230;83;25715;-73
2022/11/18 00:41:09;;;;;;;33.63;24.85;;;;;;;2.07;77.79;95732.39;1715217;83;27530;-72
2022/11/18 00:43:36;;;;;;;29.70;23.32;;;;;;;2.01;77.66;95718.56;1715064;83;25225;-72
2022/11/18 00:46:04;;;;;;;36.60;24.30;;;;;;;1.94;77.73;95720.36;1714922;83;25702;-73
2022/11/18 00:48:31;;;;;;;31.70;23.95;;;;;;;1.93;77.86;95716.09;1715174;83;26606;-76
2022/11/18 00:51:08;;;;;;;35.17;24.65;;;;;;;1.87;77.88;95711.55;1715174;83;25735;-74
2022/11/18 00:53:35;;;;;;;34.45;24.70;;;;;;;1.85;77.95;95713.58;1712862;83;27297;-72
2022/11/18 00:56:01;;;;;;;34.55;24.27;;;;;;;1.86;78.05;95708.56;1715244;83;25679;-74
2022/11/18 00:58:29;;;;;;;37.00;24.07;;;;;;;1.85;77.96;95697.61;1715362;83;25240;-72
2022/11/18 01:00:55;;;;;;;39.30;25.72;;;;;;;1.85;77.97;95705.09;1715349;83;26073;-75
2022/11/18 01:03:23;;;;;;;36.90;25.02;;;;;;;1.88;78.05;95704.70;1715340;83;25448;-72
2022/11/18 01:05:50;;;;;;;34.08;23.15;;;;;;;1.90;78.08;95710.64;1715410;83;27382;-72
2022/11/18 01:08:18;;;;;;;34.35;23.60;;;;;;;1.92;78.05;95719.77;1715243;83;25686;-75
2022/11/18 01:10:46;;;;;;;33.00;24.32;;;;;;;1.92;78.06;95719.25;1715318;83;25804;-71
2022/11/18 01:13:19;;;;;;;33.85;23.90;;;;;;;1.94;78.03;95717.70;1715464;83;26736;-72
2022/11/18 01:15:55;;;;;;;31.07;23.20;;;;;;;1.95;78.02;95721.50;1715287;83;25265;-74
2022/11/18 01:18:26;;;;;;;36.03;24.65;;;;;;;1.95;77.99;95722.00;1715279;83;28119;-73
2022/11/18 01:20:52;;;;;;;33.55;24.67;;;;;;;1.89;78.01;95723.63;1715106;83;25453;-72
2022/11/18 01:23:20;;;;;;;37.95;25.65;;;;;;;1.89;78.03;95720.16;1715355;83;25698;-72
2022/11/18 01:25:48;;;;;;;35.85;26.25;;;;;;;1.88;78.08;95716.67;1717410;82;26136;-73
2022/11/18 01:28:17;;;;;;;37.45;26.97;;;;;;;1.90;78.17;95716.47;1753128;81;26330;-72
2022/11/18 01:30:45;;;;;;;35.70;24.27;;;;;;;1.92;78.14;95714.44;1753084;81;27376;-72
2022/11/18 01:33:12;;;;;;;34.60;25.10;;;;;;;1.91;78.13;95710.95;1753127;81;25837;-71
2022/11/18 01:35:42;;;;;;;36.28;25.32;;;;;;;1.91;78.11;95708.30;1753035;81;25784;-76
2022/11/18 01:38:11;;;;;;;35.52;24.65;;;;;;;1.93;78.13;95702.78;1752829;81;26689;-72
2022/11/18 01:40:38;;;;;;;35.08;25.80;;;;;;;1.95;78.14;95703.38;1753139;81;25224;-72
2022/11/18 01:43:16;;;;;;;38.58;26.57;;;;;;;1.93;78.16;95703.61;1753167;81;27368;-76
2022/11/18 01:45:46;;;;;;;35.55;25.32;;;;;;;1.95;78.24;95708.70;1661427;86;25678;-72
2022/11/18 01:48:27;;;;;;;34.00;24.57;;;;;;;1.97;78.29;95709.33;1661273;86;25456;-75
2022/11/18 01:51:04;;;;;;;33.02;24.72;;;;;;;1.96;78.32;95711.67;1692691;84;25978;-75
2022/11/18 01:53:37;;;;;;;36.30;24.47;;;;;;;1.97;78.33;95711.48;1694688;83;25769;-75
2022/11/18 01:56:09;;;;;;;32.15;22.95;;;;;;;1.95;78.35;95701.54;1692951;84;28088;-73
2022/11/18 01:58:47;;;;;;;31.65;22.77;;;;;;;1.96;78.40;95703.69;1692702;84;25912;-73
2022/11/18 02:01:14;;;;;;;34.20;24.35;;;;;;;1.96;78.40;95703.69;1692770;84;25759;-72
2022/11/18 02:03:42;;;;;;;37.55;25.77;;;;;;;1.96;78.41;95694.37;1692842;84;25981;-73
2022/11/18 02:06:10;;;;;;;33.88;24.12;;;;;;;1.95;78.32;95693.55;1692696;84;25836;-73
2022/11/18 02:08:39;;;;;;;33.90;23.98;;;;;;;1.94;78.28;95693.75;1669471;84;28119;-72
2022/11/18 02:13:59;;;;;;;31.97;23.60;;;;;;;1.90;78.31;95701.84;1693103;84;25749;-72
2022/11/18 02:16:43;;;;;;;31.87;23.87;;;;;;;1.92;78.38;95701.14;1692732;84;26849;-72
2022/11/18 02:19:47;;;;;;;32.48;23.20;;;;;;;1.92;78.42;95694.48;1636372;87;25815;-76
2022/11/18 02:22:52;;;;;;;33.15;24.07;;;;;;;1.90;78.42;95675.23;1636230;87;27424;-75
2022/11/18 02:25:27;;;;;;;30.80;22.32;;;;;;;1.89;78.43;95671.75;1636186;87;25494;-72
2022/11/18 02:28:21;;;;;;;29.42;21.85;;;;;;;1.90;78.44;95664.59;1633425;87;25854;-75
2022/11/18 02:31:08;;;;;;;27.65;20.62;;;;;;;1.87;78.48;95652.50;1636402;87;26053;-73
2022/11/18 02:33:54;;;;;;;30.50;23.20;;;;;;;1.85;78.46;95650.55;1642467;87;25862;-72
2022/11/18 02:36:31;;;;;;;30.72;22.73;;;;;;;1.84;78.45;95654.73;1562006;91;28256;-72
2022/11/18 02:39:06;;;;;;;25.50;19.32;;;;;;;1.82;78.48;95652.27;1515100;94;25418;-72
2022/11/18 02:41:34;;;;;;;24.45;18.12;;;;;;;1.81;78.44;95651.44;1519404;92;25731;-74
2022/11/18 02:44:11;;;;;;;23.22;16.87;;;;;;;1.81;78.43;95644.80;1547834;91;26065;-72
2022/11/18 02:46:39;;;;;;;23.00;19.17;;;;;;;1.80;78.36;95648.50;1526721;93;25878;-72
2022/11/18 02:49:11;;;;;;;25.00;19.80;;;;;;;1.79;78.39;95655.34;1526750;92;28142;-72
2022/11/18 02:51:41;;;;;;;24.15;18.57;;;;;;;1.78;78.46;95649.20;1526667;93;35332;-72
2022/11/18 02:54:09;;;;;;;22.32;16.30;;;;;;;1.80;78.50;95653.82;1536159;91;25911;-72
2022/11/18 02:56:37;;;;;;;27.50;18.20;;;;;;;1.80;78.48;95660.47;1561207;91;26115;-74
2022/11/18 02:59:04;;;;;;;30.48;20.43;;;;;;;1.81;78.44;95661.30;1557211;92;25758;-72
2022/11/18 03:01:34;;;;;;;31.37;23.42;;;;;;;1.82;78.50;95669.56;1557337;92;27426;-72
2022/11/18 03:04:01;;;;;;;30.97;23.07;;;;;;;1.83;78.60;95664.55;1557068;92;25685;-73
2022/11/18 03:06:32;;;;;;;25.85;19.42;;;;;;;1.86;78.58;95668.66;1557215;92;26894;-72
2022/11/18 03:09:13;;;;;;;22.90;17.37;;;;;;;1.83;78.45;95673.04;1561035;89;26801;-75
2022/11/18 03:11:48;;;;;;;22.55;17.17;;;;;;;1.78;78.47;95673.15;1561345;91;25746;-72
2022/11/18 03:14:44;;;;;;;23.55;18.12;;;;;;;1.76;78.53;95673.85;1568085;91;28118;-75
2022/11/18 03:17:56;;;;;;;27.00;21.23;;;;;;;1.78;78.62;95664.34;1540361;93;25769;-77
2022/11/18 03:20:49;;;;;;;28.92;22.62;;;;;;;1.80;78.68;95665.80;1574998;91;25853;-72
2022/11/18 03:23:37;;;;;;;;;;;;;;;1.80;78.68;95667.13;1582312;88;26169;-72
2022/11/18 03:26:15;;;;;;;32.40;21.20;;;;;;;1.77;78.73;95660.05;1614197;88;25800;-73
2022/11/18 03:28:55;;;;;;;25.23;18.30;;;;;;;1.75;78.87;95656.76;1606781;89;27386;-72
2022/11/18 03:31:27;;;;;;;22.60;17.98;;;;;;;1.76;78.94;95656.56;1595959;89;25752;-71
2022/11/18 03:33:59;;;;;;;28.98;20.25;;;;;;;1.80;78.93;95653.82;1594562;89;25829;-72
2022/11/18 03:36:31;;;;;;;28.42;19.65;;;;;;;1.83;78.88;95657.08;1596989;89;26004;-75
2022/11/18 03:39:00;;;;;;;26.75;19.80;;;;;;;1.80;78.84;95652.49;1597133;89;25392;-72
2022/11/18 03:41:31;;;;;;;24.63;19.15;;;;;;;1.81;78.90;95654.11;1596769;89;28236;-71
2022/11/18 03:44:03;;;;;;;24.43;19.52;;;;;;;1.81;78.96;95656.77;1596785;89;25523;-75
2022/11/18 03:46:46;;;;;;;25.65;19.12;;;;;;;1.84;78.99;95650.74;1597060;89;32740;-75
2022/11/18 03:49:18;;;;;;;24.23;16.97;;;;;;;1.85;78.94;95649.72;1608514;88;26006;-72
2022/11/18 03:51:53;;;;;;;20.72;16.42;;;;;;;1.80;78.97;95639.70;1611973;87;33776;-72
2022/11/18 03:54:27;;;;;;;23.77;17.50;;;;;;;1.79;78.98;95634.89;1613308;88;27443;-74
2022/11/18 03:57:08;;;;;;;22.15;16.52;;;;;;;1.78;78.98;95635.91;1585660;90;25924;-72
2022/11/18 03:59:42;;;;;;;23.38;17.07;;;;;;;1.78;79.04;95630.58;1588885;90;25897;-74
2022/11/18 04:02:19;;;;;;;19.92;14.58;;;;;;;1.77;79.05;95624.95;1585642;90;26062;-73
2022/11/18 04:04:49;;;;;;;18.35;15.15;;;;;;;1.74;79.08;95619.20;1568072;90;25850;-73
2022/11/18 04:07:54;;;;;;;19.50;14.18;;;;;;;1.73;79.11;95618.37;1685517;85;28230;-72
2022/11/18 04:10:25;;;;;;;16.32;12.65;;;;;;;1.72;79.08;95609.27;1681489;85;25798;-75
2022/11/18 04:13:06;;;;;;;16.27;12.30;;;;;;;1.69;79.07;95615.80;1616043;88;34915;-73
2022/11/18 04:15:37;;;;;;;16.12;13.00;;;;;;;1.69;79.23;95619.78;1618655;88;26211;-73
2022/11/18 04:18:04;;;;;;;19.55;15.25;;;;;;;1.70;79.39;95618.77;1619069;88;25921;-75
2022/11/18 04:20:32;;;;;;;22.37;16.27;;;;;;;1.71;79.39;95615.09;1618825;88;27405;-73
2022/11/18 04:22:59;;;;;;;19.40;14.40;;;;;;;1.69;79.32;95605.16;1618638;88;25526;-73
2022/11/18 04:25:26;;;;;;;13.78;10.98;;;;;;;1.69;79.33;95604.37;1642014;86;25834;-72
2022/11/18 04:27:53;;;;;;;17.32;12.28;;;;;;;1.67;79.26;95607.22;1637193;87;26146;-72
2022/11/18 04:30:19;;;;;;;16.35;13.00;;;;;;;1.62;79.29;95603.00;1641764;87;26487;-73
2022/11/18 04:32:46;;;;;;;18.42;15.65;;;;;;;1.64;79.36;95603.63;1649460;86;27380;-72
2022/11/18 04:35:14;;;;;;;13.05;11.33;;;;;;;1.66;79.37;95599.44;1649191;86;25770;-72
2022/11/18 04:37:41;;;;;;;13.88;11.12;;;;;;;1.67;79.38;95597.09;1649499;86;25785;-73
2022/11/18 04:40:09;;;;;;;14.58;11.73;;;;;;;1.67;79.33;95595.77;1649434;86;25985;-72
2022/11/18 04:42:36;;;;;;;15.75;11.80;;;;;;;1.65;79.38;95602.61;1649361;86;25780;-73
2022/11/18 04:45:04;;;;;;;16.30;12.07;;;;;;;1.65;79.41;95605.78;1649388;86;27388;-73
2022/11/18 04:47:30;;;;;;;18.32;13.03;;;;;;;1.65;79.47;95617.23;1649323;86;25709;-71
2022/11/18 04:49:57;;;;;;;20.10;13.95;;;;;;;1.65;79.47;95622.55;1649049;87;25816;-72
2022/11/18 04:52:24;;;;;;;29.82;15.38;;;;;;;1.66;79.52;95622.05;1650571;82;25784;-72
2022/11/18 04:54:50;;;;;;;18.62;12.70;;;;;;;1.67;79.62;95615.72;1742258;81;25425;-74
2022/11/18 04:57:17;;;;;;;16.35;12.55;;;;;;;1.68;79.62;95612.86;1756447;81;27504;-72
2022/11/18 04:59:43;;;;;;;32.25;20.23;;;;;;;1.72;79.67;95608.75;1714192;82;25741;-73
2022/11/18 05:02:10;;;;;;;26.73;17.12;;;;;;;1.76;79.63;95607.86;1756401;81;25432;-72
2022/11/18 05:04:36;;;;;;;21.15;13.30;;;;;;;1.74;79.53;95604.06;1756465;81;25979;-74
2022/11/18 05:07:05;;;;;;;16.93;12.68;;;;;;;1.73;79.52;95599.77;1756359;81;25570;-74
2022/11/18 05:09:31;;;;;;;17.15;11.78;;;;;;;1.71;79.48;95605.78;1756278;81;27396;-75
2022/11/18 05:14:45;;;;;;;9.60;7.78;;;;;;;1.61;79.38;95609.34;1736983;82;25744;-73
2022/11/18 05:17:12;;;;;;;10.08;8.13;;;;;;;1.57;79.39;95608.08;1737190;82;25983;-73
2022/11/18 05:19:39;;;;;;;12.55;8.35;;;;;;;1.56;79.33;95606.47;1737281;82;25242;-75
2022/11/18 05:22:06;;;;;;;11.75;9.18;;;;;;;1.55;79.28;95614.14;1737206;82;27452;-74
2022/11/18 05:24:33;;;;;;;12.53;8.75;;;;;;;1.53;79.23;95616.17;1729062;82;25693;-74
2022/11/18 05:26:59;;;;;;;9.48;7.47;;;;;;;1.50;79.19;95620.55;1731904;82;25935;-75
2022/11/18 05:29:26;;;;;;;9.78;7.53;;;;;;;1.49;79.26;95629.54;1732154;82;26135;-76
2022/11/18 05:31:52;;;;;;;9.90;7.67;;;;;;;1.52;79.36;95632.32;1731875;82;25800;-74
2022/11/18 05:34:19;;;;;;;9.13;6.62;;;;;;;1.51;79.36;95629.34;1733325;81;28219;-73
2022/11/18 05:36:46;;;;;;;12.35;9.08;;;;;;;1.50;79.35;95629.85;1737934;82;25443;-72
2022/11/18 05:39:12;;;;;;;11.22;8.45;;;;;;;1.47;79.29;95624.11;1741814;82;25233;-72
2022/11/18 05:44:23;;;;;;;14.65;9.28;;;;;;;1.45;79.21;95624.30;1735732;82;26192;-72
2022/11/18 05:46:50;;;;;;;11.48;8.23;;;;;;;1.42;79.21;95622.88;1737966;82;28056;-72
2022/11/18 05:49:17;;;;;;;12.03;7.75;;;;;;;1.42;79.15;95628.20;1737371;82;26351;-75
2022/11/18 05:51:43;;;;;;;11.75;9.38;;;;;;;1.41;79.21;95637.70;1740897;82;25334;-73
2022/11/18 05:54:13;;;;;;;11.40;8.85;;;;;;;1.41;79.21;95634.53;1745000;82;26119;-72
2022/11/18 05:56:45;;;;;;;11.88;10.20;;;;;;;1.41;79.19;95636.36;1747522;82;25233;-72
2022/11/18 05:59:12;;;;;;;16.00;10.70;;;;;;;1.40;79.19;95637.38;1753621;81;27441;-72
2022/11/18 06:01:53;;;;;;;14.50;11.08;;;;;;;1.39;79.06;95645.05;1753613;81;25429;-75
2022/11/18 06:04:42;;;;;;;17.75;13.40;;;;;;;1.38;79.15;95650.87;1737442;82;25614;-71
2022/11/18 06:07:22;;;;;;;15.13;13.00;;;;;;;1.37;79.12;95651.88;1739855;82;25996;-72
2022/11/18 06:09:53;;;;;;;18.20;12.50;;;;;;;1.37;79.17;95648.41;1738607;82;25676;-75
2022/11/18 06:12:24;;;;;;;13.38;10.58;;;;;;;1.38;79.28;95642.89;1753672;81;27383;-76
2022/11/18 06:14:59;;;;;;;14.28;10.53;;;;;;;1.40;79.26;95642.70;1739698;82;25653;-74
2022/11/18 06:17:33;;;;;;;15.38;10.82;;;;;;;1.39;79.32;95649.85;1739773;82;25720;-75
2022/11/18 06:20:02;;;;;;;12.30;9.30;;;;;;;1.42;79.30;95651.30;1692171;84;26817;-72
2022/11/18 06:22:29;;;;;;;13.65;8.88;;;;;;;1.42;79.18;95661.94;1692240;84;25471;-71
2022/11/18 06:24:56;;;;;;;13.32;9.53;;;;;;;1.39;79.09;95663.14;1692685;84;27337;-72
2022/11/18 06:27:23;;;;;;;12.43;8.78;;;;;;;1.39;79.15;95675.11;1692527;84;25648;-72
2022/11/18 06:29:49;;;;;;;13.70;10.68;;;;;;;1.41;79.27;95669.59;1692580;84;25772;-72
2022/11/18 06:32:16;;;;;;;14.13;11.03;;;;;;;1.38;79.27;95666.00;1692686;84;25976;-73
2022/11/18 06:34:42;;;;;;;15.93;10.48;;;;;;;1.37;79.24;95668.34;1692619;84;25633;-76
2022/11/18 06:37:19;;;;;;;15.43;10.58;;;;;;;1.39;79.22;95670.30;1692544;84;27376;-75
2022/11/18 06:39:46;;;;;;;12.53;9.95;;;;;;;1.38;79.22;95679.29;1692412;84;25844;-76
2022/11/18 06:43:37;;;;;;;14.45;11.22;;;;;;;1.35;79.29;95681.00;1692754;84;25359;-76
2022/11/18 06:44:44;;;;;;;17.63;11.10;;;;;;;1.34;79.35;95676.19;1689201;84;26261;-72
2022/11/18 06:47:10;;;;;;;15.30;11.68;;;;;;;1.36;79.35;95674.67;1692801;84;25769;-71
2022/11/18 06:49:37;;;;;;;14.13;11.00;;;;;;;1.39;79.35;95676.44;1692365;84;27422;-76
2022/11/18 06:52:04;;;;;;;13.43;10.70;;;;;;;1.41;79.31;95672.26;1692653;84;25876;-72
2022/11/18 06:54:30;;;;;;;18.70;13.10;;;;;;;1.43;79.30;95668.39;1692505;84;25894;-73
2022/11/18 06:56:57;;;;;;;17.77;13.80;;;;;;;1.41;79.15;95669.59;1685908;84;25984;-72
2022/11/18 06:59:23;;;;;;;19.92;15.25;;;;;;;1.40;79.24;95665.30;1685852;85;25776;-73
2022/11/18 07:01:51;;;;;;;24.40;16.93;;;;;;;1.39;79.16;95676.95;1685836;85;27353;-75
2022/11/18 07:04:19;;;;;;;18.05;14.05;;;;;;;1.39;79.20;95683.59;1685626;85;25253;-73
2022/11/18 07:06:45;;;;;;;19.67;14.70;;;;;;;1.39;79.20;95691.56;1685886;85;25801;-72
2022/11/18 07:09:12;;;;;;;17.40;13.28;;;;;;;1.40;79.13;95690.55;1685842;85;25981;-76
2022/11/18 07:11:40;;;;;;;15.90;12.68;;;;;;;1.37;78.99;95690.94;1685921;85;25827;-76
2022/11/18 07:14:08;;;;;;;16.70;12.40;;;;;;;1.36;78.95;95686.64;1685892;85;28164;-72
2022/11/18 07:16:35;;;;;;;12.90;10.70;;;;;;;1.36;79.03;95694.61;1700198;83;25704;-73
2022/11/18 07:19:09;;;;;;;16.37;11.35;;;;;;;1.36;79.08;95687.96;1739765;82;25663;-73
2022/11/18 07:21:36;;;;;;;15.10;11.18;;;;;;;1.37;79.06;95681.63;1743902;82;26110;-72
2022/11/18 07:24:08;;;;;;;14.30;11.03;;;;;;;1.37;78.96;95681.63;1746368;81;25847;-75
2022/11/18 07:26:35;;;;;;;13.30;10.90;;;;;;;1.33;78.84;95670.56;1746582;82;27383;-73
2022/11/18 07:29:02;;;;;;;15.88;12.18;;;;;;;1.33;78.92;95666.58;1746272;82;25753;-73
2022/11/18 07:31:28;;;;;;;14.55;11.75;;;;;;;1.31;78.86;95674.45;1746414;82;25341;-73
2022/11/18 07:33:55;;;;;;;14.30;11.22;;;;;;;1.29;78.84;95673.83;1746403;81;26679;-73
2022/11/18 07:36:26;;;;;;;13.35;10.63;;;;;;;1.29;78.95;95669.84;1745944;82;25687;-72
2022/11/18 07:38:54;;;;;;;14.35;10.38;;;;;;;1.30;78.99;95678.13;1745992;82;27465;-73
2022/11/18 07:41:24;;;;;;;13.80;10.63;;;;;;;1.29;78.95;95669.84;1745961;82;25454;-73
2022/11/18 07:43:52;;;;;;;10.85;8.68;;;;;;;1.25;78.86;95652.63;1726675;82;25731;-74
2022/11/18 07:46:31;;;;;;;14.60;11.25;;;;;;;1.24;78.90;95649.66;1746230;82;26001;-72
2022/11/18 07:49:01;;;;;;;13.10;9.78;;;;;;;1.24;78.91;95635.86;1746350;82;25664;-73
2022/11/18 07:51:34;;;;;;;12.43;9.80;;;;;;;1.25;78.92;95644.66;1736846;82;27455;-73
2022/11/18 07:54:09;;;;;;;12.30;10.03;;;;;;;1.25;78.87;95665.92;1670607;84;25575;-72
2022/11/18 07:56:35;;;;;;;13.50;10.58;;;;;;;1.25;78.88;95669.40;1656956;86;25753;-72
2022/11/18 07:59:03;;;;;;;15.65;12.18;;;;;;;1.21;78.89;95670.01;1657085;85;26011;-71
2022/11/18 08:01:30;;;;;;;19.00;15.28;;;;;;;1.17;78.98;95668.23;1657137;86;25898;-72
2022/11/18 08:04:09;;;;;;;17.90;14.15;;;;;;;1.15;79.00;95674.76;1657269;86;27910;-74
2022/11/18 08:06:36;;;;;;;17.52;14.15;;;;;;;1.13;78.88;95675.45;1655649;85;25828;-71
2022/11/18 08:09:05;;;;;;;20.70;14.33;;;;;;;1.15;79.04;95678.75;1657114;86;25705;-72
2022/11/18 08:11:31;;;;;;;30.77;17.40;;;;;;;1.14;79.05;95680.58;1657075;86;26161;-75
2022/11/18 08:13:58;;;;;;;32.05;17.67;;;;;;;1.13;78.80;95679.44;1657197;85;25942;-73
2022/11/18 08:16:25;;;;;;;46.33;24.00;;;;;;;1.14;78.87;95677.10;1670952;85;28018;-73
2022/11/18 08:18:52;;;;;;;57.58;27.32;;;;;;;1.16;78.85;95678.55;1674405;85;25824;-72
2022/11/18 08:21:21;;;;;;;49.15;25.62;;;;;;;1.15;78.69;95685.39;1679710;85;25732;-73
2022/11/18 08:23:55;;;;;;;64.22;30.15;;;;;;;1.14;78.65;95675.27;1681476;85;26001;-73
2022/11/18 08:26:22;;;;;;;46.00;25.15;;;;;;;1.14;78.59;95679.76;1661258;85;26640;-76
2022/11/18 08:28:49;;;;;;;44.55;24.25;;;;;;;1.14;78.50;95686.41;1648963;85;27381;-72
2022/11/18 08:31:25;;;;;;;26.85;16.87;;;;;;;1.10;78.41;95689.95;1646274;87;26019;-72
2022/11/18 08:34:01;;;;;;;25.60;16.97;;;;;;;1.08;78.40;95682.20;1646308;87;25543;-72
2022/11/18 08:36:31;;;;;;;21.27;15.30;;;;;;;1.07;78.43;95675.23;1673913;85;26728;-72
2022/11/18 08:38:59;;;;;;;15.10;11.85;;;;;;;1.04;78.36;95678.78;1673956;85;25756;-72
2022/11/18 08:41:39;;;;;;;14.65;11.50;;;;;;;1.03;78.44;95676.62;1674187;85;27465;-73
2022/11/18 08:44:08;;;;;;;14.15;11.97;;;;;;;1.01;78.41;95681.81;1649324;87;25686;-72
2022/11/18 08:46:35;;;;;;;12.37;10.10;;;;;;;1.00;78.49;95684.98;1627278;87;25339;-73
2022/11/18 08:49:02;;;;;;;13.35;10.65;;;;;;;1.02;78.65;95682.95;1649419;87;25956;-72
2022/11/18 08:51:29;;;;;;;16.40;12.68;;;;;;;1.04;78.62;95690.73;1646352;85;25921;-74
2022/11/18 08:53:56;;;;;;;20.23;15.75;;;;;;;1.04;78.64;95694.22;1629558;87;27023;-72
2022/11/18 08:56:24;;;;;;;23.83;16.40;;;;;;;1.02;78.74;95701.55;1657716;85;25740;-73
2022/11/18 08:58:51;;;;;;;26.30;18.48;;;;;;;1.04;78.92;95702.19;1656096;85;25831;-73
2022/11/18 09:01:18;;;;;;;26.62;20.72;;;;;;;1.10;79.02;95709.87;1647674;85;26069;-73
2022/11/18 09:03:46;;;;;;;22.52;17.67;;;;;;;1.09;79.14;95711.71;1670295;85;25808;-72
2022/11/18 09:06:16;;;;;;;19.42;15.85;;;;;;;1.16;79.26;95720.25;1670330;85;27466;-72
2022/11/18 09:08:43;;;;;;;28.05;19.75;;;;;;;1.22;79.25;95727.44;1670356;85;25853;-71
2022/11/18 09:11:16;;;;;;;21.50;16.45;;;;;;;1.17;79.02;95720.57;1670415;85;25549;-71
2022/11/18 09:13:44;;;;;;;22.50;17.45;;;;;;;1.15;79.12;95707.98;1603614;89;26086;-75
2022/11/18 09:16:12;;;;;;;22.40;17.45;;;;;;;1.18;79.20;95716.39;1603668;89;25803;-74
2022/11/18 09:18:38;;;;;;;28.50;18.87;;;;;;;1.21;79.23;95709.34;1603911;89;25830;-72
2022/11/18 09:21:08;;;;;;;27.65;18.55;;;;;;;1.28;79.40;95714.71;1603689;89;25723;-72
2022/11/18 09:23:37;;;;;;;20.70;14.63;;;;;;;1.28;79.20;95700.91;1591933;89;25778;-72
2022/11/18 09:26:13;;;;;;;18.07;13.50;;;;;;;1.28;78.98;95712.05;1582432;90;26008;-75
2022/11/18 09:28:40;;;;;;;13.38;10.75;;;;;;;1.28;79.03;95711.55;1569608;91;25761;-74
2022/11/18 09:31:16;;;;;;;10.93;9.03;;;;;;;1.28;78.78;95703.58;1569633;91;27492;-72
2022/11/18 09:33:43;;;;;;;10.88;9.18;;;;;;;1.22;78.51;95712.31;1569599;91;25764;-72
2022/11/18 09:36:20;;;;;;;12.55;9.68;;;;;;;1.17;78.33;95723.23;1569518;91;25773;-72
2022/11/18 09:38:48;;;;;;;12.93;9.95;;;;;;;1.16;78.39;95722.41;1570872;90;26908;-72
2022/11/18 09:41:29;;;;;;;20.20;12.20;;;;;;;1.20;78.48;95724.17;1591385;90;25757;-73
2022/11/18 09:44:35;;;;;;;30.23;16.20;;;;;;;1.23;78.48;95727.75;1585491;90;28491;-73
2022/11/18 09:47:27;;;;;;;40.70;20.20;;;;;;;1.23;78.43;95721.11;1576136;91;25894;-75
2022/11/18 09:49:59;;;;;;;43.67;24.10;;;;;;;1.23;78.45;95722.44;1576055;91;25438;-73
2022/11/18 09:52:48;;;;;;;33.42;20.15;;;;;;;1.25;78.50;95729.72;1550579;92;26653;-73
2022/11/18 09:55:17;;;;;;;20.72;14.53;;;;;;;1.29;78.59;95733.64;1550601;92;25831;-75
2022/11/18 09:57:48;;;;;;;16.93;12.03;;;;;;;1.30;78.42;95733.45;1550269;92;27425;-72
2022/11/18 10:00:19;;;;;;;16.55;12.53;;;;;;;1.29;78.25;95730.98;1550610;92;25535;-73
2022/11/18 10:02:52;;;;;;;14.25;11.45;;;;;;;1.28;78.27;95742.63;1550886;92;25781;-74
2022/11/18 10:05:23;;;;;;;16.40;12.82;;;;;;;1.30;78.38;95741.92;1597842;89;26980;-75
2022/11/18 10:07:55;;;;;;;18.10;14.20;;;;;;;1.28;78.29;95738.64;1598002;89;25558;-75
2022/11/18 10:10:49;;;;;;;17.70;13.45;;;;;;;1.25;78.40;95731.86;1598171;89;28052;-73
2022/11/18 10:13:30;;;;;;;13.58;10.03;;;;;;;1.29;78.44;95733.13;1597809;89;25789;-74
2022/11/18 10:16:26;;;;;;;14.00;10.95;;;;;;;1.30;78.37;95729.97;1596495;89;25835;-74
2022/11/18 10:19:28;;;;;;;13.43;10.95;;;;;;;1.31;78.23;95730.28;1598023;89;26168;-74
2022/11/18 10:22:33;;;;;;;14.40;11.12;;;;;;;1.33;78.29;95726.89;1598882;87;25535;-72
2022/11/18 10:25:00;;;;;;;13.78;10.72;;;;;;;1.35;78.19;95732.84;1601463;88;28088;-72
2022/11/18 10:27:40;;;;;;;15.43;11.15;;;;;;;1.29;77.94;95724.33;1615570;88;25791;-74
2022/11/18 10:30:17;;;;;;;16.10;12.10;;;;;;;1.23;77.90;95717.12;1612196;88;25904;-74
2022/11/18 10:33:00;;;;;;;15.58;11.38;;;;;;;1.23;78.16;95719.27;1588182;89;26002;-73
2022/11/18 10:35:32;;;;;;;16.00;12.47;;;;;;;1.27;78.27;95721.86;1614075;88;25741;-73
2022/11/18 10:38:16;;;;;;;15.85;12.25;;;;;;;1.33;78.42;95721.58;1599349;89;27404;-73
2022/11/18 10:41:01;;;;;;;19.73;13.90;;;;;;;1.41;78.47;95714.80;1599086;89;25681;-75
2022/11/18 10:43:52;;;;;;;21.52;14.98;;;;;;;1.47;78.28;95713.17;1615528;88;25821;-74
2022/11/18 10:46:29;;;;;;;21.87;14.93;;;;;;;1.49;78.10;95713.30;1599191;89;25936;-72
2022/11/18 10:49:16;;;;;;;21.57;15.13;;;;;;;1.38;78.03;95708.53;1599188;89;25843;-74
2022/11/18 10:51:46;;;;;;;18.32;13.70;;;;;;;1.41;78.24;95710.81;1598961;89;28307;-74
2022/11/18 10:54:22;;;;;;;19.55;14.40;;;;;;;1.48;78.27;95716.16;1599029;89;25336;-75
2022/11/18 10:57:20;;;;;;;17.70;12.60;;;;;;;1.52;78.33;95712.91;1678319;84;26873;-74
2022/11/18 10:59:50;;;;;;;12.68;10.80;;;;;;;1.56;78.29;95717.34;1685405;84;26033;-74
2022/11/18 11:02:32;;;;;;;16.20;12.15;;;;;;;1.59;78.13;95719.08;1703833;82;25504;-72
2022/11/18 11:05:04;;;;;;;15.30;10.82;;;;;;;1.57;78.01;95715.79;1741559;82;27383;-74
2022/11/18 11:07:36;;;;;;;16.10;10.80;;;;;;;1.58;77.92;95722.75;1738295;82;25257;-75
2022/11/18 11:10:14;;;;;;;17.37;12.78;;;;;;;1.60;77.96;95722.56;1741787;82;25700;-72
2022/11/18 11:12:57;;;;;;;22.02;15.48;;;;;;;1.64;78.01;95722.48;1741607;82;25982;-74
2022/11/18 11:15:44;;;;;;;23.62;16.65;;;;;;;1.65;77.94;95724.95;1741955;82;25628;-74
2022/11/18 11:21:12;;;;;;;15.78;12.58;;;;;;;1.46;78.07;95719.00;1741288;82;25198;-74
2022/11/18 11:23:40;;;;;;;18.98;12.58;;;;;;;1.44;77.98;95721.88;1739491;82;25651;-73
2022/11/18 11:26:30;;;;;;;18.25;13.20;;;;;;;1.47;78.15;95724.63;1741627;82;26088;-75
2022/11/18 11:29:14;;;;;;;19.37;13.43;;;;;;;1.47;77.99;95721.98;1740734;82;25486;-72
2022/11/18 11:32:04;;;;;;;11.43;8.80;;;;;;;1.45;78.10;95720.02;1752413;81;27451;-74
2022/11/18 11:34:45;;;;;;;9.43;7.70;;;;;;;1.41;77.87;95728.91;1707069;84;25887;-72
2022/11/18 11:37:54;;;;;;;10.18;6.85;;;;;;;1.42;77.87;95724.42;1707531;84;25710;-74
2022/11/18 11:40:43;;;;;;;15.35;10.68;;;;;;;1.47;77.82;95715.84;1729835;82;26014;-74
2022/11/18 11:43:20;;;;;;;16.65;11.35;;;;;;;1.49;77.80;95728.44;1641051;87;25832;-74
2022/11/18 11:46:10;;;;;;;16.12;12.00;;;;;;;1.48;77.87;95724.95;1648326;86;27411;-74
2022/11/18 11:49:00;;;;;;;13.60;10.25;;;;;;;1.52;77.88;95718.23;1574675;90;25900;-73
2022/11/18 11:51:37;;;;;;;14.38;9.55;;;;;;;1.54;77.83;95726.84;1550374;92;25868;-72
2022/11/18 11:54:38;;;;;;;15.68;9.65;;;;;;;1.55;77.85;95716.52;1511314;94;26116;-72
2022/11/18 11:57:16;;;;;;;14.85;11.53;;;;;;;1.53;77.70;95718.55;1527171;93;25785;-75
2022/11/18 12:00:00;;;;;;;26.55;13.80;;;;;;;1.52;77.76;95711.59;1531803;93;28330;-72
2022/11/18 12:02:37;;;;;;;47.45;18.67;;;;;;;1.49;77.72;95710.64;1529030;91;25923;-74
2022/11/18 12:05:25;;;;;;;18.75;10.90;;;;;;;1.45;77.46;95710.20;1528847;93;25834;-74
2022/11/18 12:07:57;;;;;;;25.00;12.37;;;;;;;1.43;77.42;95720.75;1532837;92;25985;-73